Capeville, Virginia
Current Conditions -  °F | °C
As of 2:58 AM on Thursday 29 Jan 2015 (Local Time) from KLFI Reporting Station
Clear Clear  
Wind Chill: 16°   Ceiling: Unl
Heat Index: 23°   Visibility: 10mi
Dew Point: 15°   Wind: 6mph
Humidity: 72%   Direction: 290°WNW
Pressure: 30.34"   Gusts: NA
Location:  37.2°N, 75.96°W
Report Text: KLFI 290758Z AUTO 29005KT 10SM CLR M05/M09 A3034 RMK AO2 SLP281 T10511095 $
Loading
Personal Weather Stations






























Interactive Weather Map New forecast layout! Learn more

10-Day Weather Forecast

Advertisements
Track Severe Weather on mobile